sensor_id;sensor_type;location;lat;lon;timestamp;P1;durP1;ratioP1;P2;durP2;ratioP2
2305;SDS011;1161;51.922;8.896;2023-02-10T00:00:55;75.60;;;33.20;;
2305;SDS011;1161;51.922;8.896;2023-02-10T00:03:22;85.60;;;32.83;;
2305;SDS011;1161;51.922;8.896;2023-02-10T00:05:49;74.47;;;31.90;;
2305;SDS011;1161;51.922;8.896;2023-02-10T00:08:15;80.10;;;29.83;;
2305;SDS011;1161;51.922;8.896;2023-02-10T00:10:43;73.43;;;33.00;;
2305;SDS011;1161;51.922;8.896;2023-02-10T00:13:10;75.47;;;30.27;;
2305;SDS011;1161;51.922;8.896;2023-02-10T00:15:39;77.77;;;34.80;;
2305;SDS011;1161;51.922;8.896;2023-02-10T00:18:06;74.67;;;32.73;;
2305;SDS011;1161;51.922;8.896;2023-02-10T00:20:32;81.07;;;32.93;;
2305;SDS011;1161;51.922;8.896;2023-02-10T00:22:59;84.77;;;30.00;;
2305;SDS011;1161;51.922;8.896;2023-02-10T00:25:26;78.60;;;31.40;;
2305;SDS011;1161;51.922;8.896;2023-02-10T00:27:54;72.47;;;31.60;;
2305;SDS011;1161;51.922;8.896;2023-02-10T00:30:21;87.95;;;32.85;;
2305;SDS011;1161;51.922;8.896;2023-02-10T00:32:47;88.20;;;34.73;;
2305;SDS011;1161;51.922;8.896;2023-02-10T00:35:14;69.70;;;30.50;;
2305;SDS011;1161;51.922;8.896;2023-02-10T00:37:40;72.35;;;31.13;;
2305;SDS011;1161;51.922;8.896;2023-02-10T00:40:07;76.63;;;34.50;;
2305;SDS011;1161;51.922;8.896;2023-02-10T00:42:34;78.90;;;32.83;;
2305;SDS011;1161;51.922;8.896;2023-02-10T00:45:02;87.47;;;38.70;;
2305;SDS011;1161;51.922;8.896;2023-02-10T00:47:29;70.33;;;33.97;;
2305;SDS011;1161;51.922;8.896;2023-02-10T00:49:56;92.43;;;36.57;;
2305;SDS011;1161;51.922;8.896;2023-02-10T00:52:23;109.67;;;37.50;;
2305;SDS011;1161;51.922;8.896;2023-02-10T00:54:49;85.90;;;34.97;;
2305;SDS011;1161;51.922;8.896;2023-02-10T00:57:16;89.40;;;36.23;;
2305;SDS011;1161;51.922;8.896;2023-02-10T00:59:42;83.17;;;34.40;;
2305;SDS011;1161;51.922;8.896;2023-02-10T01:02:11;95.00;;;37.45;;
2305;SDS011;1161;51.922;8.896;2023-02-10T01:04:37;81.60;;;34.80;;
2305;SDS011;1161;51.922;8.896;2023-02-10T01:07:04;75.50;;;37.60;;
2305;SDS011;1161;51.922;8.896;2023-02-10T01:09:30;80.13;;;35.60;;
2305;SDS011;1161;51.922;8.896;2023-02-10T01:11:57;114.60;;;37.30;;
2305;SDS011;1161;51.922;8.896;2023-02-10T01:14:24;83.17;;;37.30;;
2305;SDS011;1161;51.922;8.896;2023-02-10T01:16:50;80.40;;;35.60;;
2305;SDS011;1161;51.922;8.896;2023-02-10T01:19:18;87.73;;;35.60;;
2305;SDS011;1161;51.922;8.896;2023-02-10T01:21:45;100.30;;;43.10;;
2305;SDS011;1161;51.922;8.896;2023-02-10T01:24:11;79.97;;;37.20;;
2305;SDS011;1161;51.922;8.896;2023-02-10T01:26:38;72.60;;;35.17;;
2305;SDS011;1161;51.922;8.896;2023-02-10T01:29:04;98.07;;;40.00;;
2305;SDS011;1161;51.922;8.896;2023-02-10T01:31:31;81.70;;;35.30;;
2305;SDS011;1161;51.922;8.896;2023-02-10T01:33:58;97.63;;;35.63;;
2305;SDS011;1161;51.922;8.896;2023-02-10T01:36:26;97.13;;;38.30;;
2305;SDS011;1161;51.922;8.896;2023-02-10T01:38:52;87.27;;;36.20;;
2305;SDS011;1161;51.922;8.896;2023-02-10T01:41:20;80.17;;;37.93;;
2305;SDS011;1161;51.922;8.896;2023-02-10T01:43:58;78.23;;;35.17;;
2305;SDS011;1161;51.922;8.896;2023-02-10T01:46:26;100.93;;;39.70;;
2305;SDS011;1161;51.922;8.896;2023-02-10T01:48:53;83.43;;;36.93;;
2305;SDS011;1161;51.922;8.896;2023-02-10T01:51:23;81.70;;;35.10;;
2305;SDS011;1161;51.922;8.896;2023-02-10T01:53:55;81.67;;;34.70;;
2305;SDS011;1161;51.922;8.896;2023-02-10T01:56:21;83.10;;;36.83;;
2305;SDS011;1161;51.922;8.896;2023-02-10T01:58:48;79.67;;;36.60;;
2305;SDS011;1161;51.922;8.896;2023-02-10T02:01:15;74.27;;;36.17;;
2305;SDS011;1161;51.922;8.896;2023-02-10T02:03:42;79.77;;;33.73;;
2305;SDS011;1161;51.922;8.896;2023-02-10T02:06:09;73.13;;;32.80;;
2305;SDS011;1161;51.922;8.896;2023-02-10T02:08:36;87.70;;;35.80;;
2305;SDS011;1161;51.922;8.896;2023-02-10T02:11:07;82.53;;;35.87;;
2305;SDS011;1161;51.922;8.896;2023-02-10T02:13:44;75.17;;;32.00;;
2305;SDS011;1161;51.922;8.896;2023-02-10T02:16:21;87.33;;;36.20;;
2305;SDS011;1161;51.922;8.896;2023-02-10T02:18:55;89.77;;;35.60;;
2305;SDS011;1161;51.922;8.896;2023-02-10T02:21:36;86.43;;;36.60;;
2305;SDS011;1161;51.922;8.896;2023-02-10T02:24:22;92.73;;;36.90;;
2305;SDS011;1161;51.922;8.896;2023-02-10T02:26:55;72.10;;;34.37;;
2305;SDS011;1161;51.922;8.896;2023-02-10T02:29:45;86.90;;;34.47;;
2305;SDS011;1161;51.922;8.896;2023-02-10T02:32:25;97.87;;;35.77;;
2305;SDS011;1161;51.922;8.896;2023-02-10T02:34:55;90.10;;;37.50;;
2305;SDS011;1161;51.922;8.896;2023-02-10T02:37:26;85.07;;;36.37;;
2305;SDS011;1161;51.922;8.896;2023-02-10T02:39:55;77.53;;;37.33;;
2305;SDS011;1161;51.922;8.896;2023-02-10T02:42:23;83.50;;;34.70;;
2305;SDS011;1161;51.922;8.896;2023-02-10T02:44:52;83.07;;;33.77;;
2305;SDS011;1161;51.922;8.896;2023-02-10T02:47:27;95.97;;;39.80;;
2305;SDS011;1161;51.922;8.896;2023-02-10T02:50:15;87.87;;;36.90;;
2305;SDS011;1161;51.922;8.896;2023-02-10T02:52:48;80.97;;;35.50;;
2305;SDS011;1161;51.922;8.896;2023-02-10T02:55:24;87.63;;;37.30;;
2305;SDS011;1161;51.922;8.896;2023-02-10T02:57:55;98.73;;;36.20;;
2305;SDS011;1161;51.922;8.896;2023-02-10T03:00:24;109.27;;;43.70;;
2305;SDS011;1161;51.922;8.896;2023-02-10T03:02:55;82.50;;;40.40;;
2305;SDS011;1161;51.922;8.896;2023-02-10T03:05:27;86.00;;;36.03;;
2305;SDS011;1161;51.922;8.896;2023-02-10T03:07:55;73.00;;;33.00;;
2305;SDS011;1161;51.922;8.896;2023-02-10T03:10:22;105.57;;;34.57;;
2305;SDS011;1161;51.922;8.896;2023-02-10T03:12:48;61.92;;;30.75;;
2305;SDS011;1161;51.922;8.896;2023-02-10T03:15:15;85.47;;;30.10;;
2305;SDS011;1161;51.922;8.896;2023-02-10T03:17:42;61.00;;;27.67;;
2305;SDS011;1161;51.922;8.896;2023-02-10T03:20:11;60.57;;;28.43;;
2305;SDS011;1161;51.922;8.896;2023-02-10T03:22:37;72.13;;;29.08;;
2305;SDS011;1161;51.922;8.896;2023-02-10T03:25:04;65.13;;;29.53;;
2305;SDS011;1161;51.922;8.896;2023-02-10T03:27:31;86.15;;;30.02;;
2305;SDS011;1161;51.922;8.896;2023-02-10T03:29:58;76.13;;;31.02;;
2305;SDS011;1161;51.922;8.896;2023-02-10T03:32:24;80.43;;;31.73;;
2305;SDS011;1161;51.922;8.896;2023-02-10T03:34:51;64.90;;;30.35;;
2305;SDS011;1161;51.922;8.896;2023-02-10T03:37:19;73.63;;;34.22;;
2305;SDS011;1161;51.922;8.896;2023-02-10T03:39:45;83.53;;;28.80;;
2305;SDS011;1161;51.922;8.896;2023-02-10T03:42:12;86.10;;;35.10;;
2305;SDS011;1161;51.922;8.896;2023-02-10T03:44:39;68.10;;;32.70;;
2305;SDS011;1161;51.922;8.896;2023-02-10T03:47:06;84.30;;;30.90;;
2305;SDS011;1161;51.922;8.896;2023-02-10T03:49:33;80.93;;;31.60;;
2305;SDS011;1161;51.922;8.896;2023-02-10T03:52:00;71.27;;;29.97;;
2305;SDS011;1161;51.922;8.896;2023-02-10T03:54:28;77.40;;;32.75;;
2305;SDS011;1161;51.922;8.896;2023-02-10T03:56:56;77.87;;;29.50;;
2305;SDS011;1161;51.922;8.896;2023-02-10T03:59:23;69.67;;;32.60;;
2305;SDS011;1161;51.922;8.896;2023-02-10T04:01:50;65.20;;;30.43;;
2305;SDS011;1161;51.922;8.896;2023-02-10T04:04:17;80.87;;;33.90;;
2305;SDS011;1161;51.922;8.896;2023-02-10T04:06:44;74.73;;;33.53;;
2305;SDS011;1161;51.922;8.896;2023-02-10T04:09:10;73.00;;;32.65;;
2305;SDS011;1161;51.922;8.896;2023-02-10T04:11:38;80.43;;;31.75;;
2305;SDS011;1161;51.922;8.896;2023-02-10T04:14:05;78.57;;;34.90;;
2305;SDS011;1161;51.922;8.896;2023-02-10T04:16:31;80.00;;;36.47;;
2305;SDS011;1161;51.922;8.896;2023-02-10T04:18:58;94.82;;;39.90;;
2305;SDS011;1161;51.922;8.896;2023-02-10T04:21:25;112.03;;;40.17;;
2305;SDS011;1161;51.922;8.896;2023-02-10T04:23:52;114.72;;;39.15;;
2305;SDS011;1161;51.922;8.896;2023-02-10T04:26:19;93.27;;;41.43;;
2305;SDS011;1161;51.922;8.896;2023-02-10T04:28:47;98.30;;;39.50;;
2305;SDS011;1161;51.922;8.896;2023-02-10T04:31:14;122.22;;;44.20;;
2305;SDS011;1161;51.922;8.896;2023-02-10T04:33:41;107.03;;;43.13;;
2305;SDS011;1161;51.922;8.896;2023-02-10T04:36:08;110.83;;;41.83;;
2305;SDS011;1161;51.922;8.896;2023-02-10T04:38:36;120.20;;;44.20;;
2305;SDS011;1161;51.922;8.896;2023-02-10T04:41:03;97.40;;;37.80;;
2305;SDS011;1161;51.922;8.896;2023-02-10T04:43:31;131.63;;;41.97;;
2305;SDS011;1161;51.922;8.896;2023-02-10T04:45:59;110.20;;;41.33;;
2305;SDS011;1161;51.922;8.896;2023-02-10T04:48:28;107.37;;;39.00;;
2305;SDS011;1161;51.922;8.896;2023-02-10T04:50:55;107.53;;;41.85;;
2305;SDS011;1161;51.922;8.896;2023-02-10T04:53:22;126.20;;;44.50;;
2305;SDS011;1161;51.922;8.896;2023-02-10T04:55:50;119.87;;;45.57;;
2305;SDS011;1161;51.922;8.896;2023-02-10T04:58:17;119.23;;;46.97;;
2305;SDS011;1161;51.922;8.896;2023-02-10T05:00:45;126.33;;;48.20;;
2305;SDS011;1161;51.922;8.896;2023-02-10T05:03:15;136.02;;;47.20;;
2305;SDS011;1161;51.922;8.896;2023-02-10T05:05:43;115.50;;;45.38;;
2305;SDS011;1161;51.922;8.896;2023-02-10T05:08:12;95.65;;;41.50;;
2305;SDS011;1161;51.922;8.896;2023-02-10T05:10:39;117.43;;;43.43;;
2305;SDS011;1161;51.922;8.896;2023-02-10T05:13:06;108.67;;;45.87;;
2305;SDS011;1161;51.922;8.896;2023-02-10T05:15:33;112.28;;;48.03;;
2305;SDS011;1161;51.922;8.896;2023-02-10T05:18:00;132.30;;;46.03;;
2305;SDS011;1161;51.922;8.896;2023-02-10T05:20:28;128.60;;;46.80;;
2305;SDS011;1161;51.922;8.896;2023-02-10T05:22:55;128.52;;;49.13;;
2305;SDS011;1161;51.922;8.896;2023-02-10T05:25:24;129.95;;;47.03;;
2305;SDS011;1161;51.922;8.896;2023-02-10T05:27:52;129.53;;;48.43;;
2305;SDS011;1161;51.922;8.896;2023-02-10T05:30:18;134.03;;;50.80;;
2305;SDS011;1161;51.922;8.896;2023-02-10T05:32:46;123.90;;;47.58;;
2305;SDS011;1161;51.922;8.896;2023-02-10T05:35:15;163.53;;;55.10;;
2305;SDS011;1161;51.922;8.896;2023-02-10T05:37:47;138.98;;;53.03;;
2305;SDS011;1161;51.922;8.896;2023-02-10T05:40:20;142.88;;;52.75;;
2305;SDS011;1161;51.922;8.896;2023-02-10T05:42:48;139.50;;;55.33;;
2305;SDS011;1161;51.922;8.896;2023-02-10T05:45:16;152.67;;;55.87;;
2305;SDS011;1161;51.922;8.896;2023-02-10T05:47:58;137.02;;;54.22;;
2305;SDS011;1161;51.922;8.896;2023-02-10T05:50:25;150.80;;;56.20;;
2305;SDS011;1161;51.922;8.896;2023-02-10T05:52:54;145.07;;;52.43;;
2305;SDS011;1161;51.922;8.896;2023-02-10T05:55:22;146.33;;;53.20;;
2305;SDS011;1161;51.922;8.896;2023-02-10T05:57:50;148.23;;;56.13;;
2305;SDS011;1161;51.922;8.896;2023-02-10T06:00:18;146.97;;;54.63;;
2305;SDS011;1161;51.922;8.896;2023-02-10T06:02:47;155.40;;;52.77;;
2305;SDS011;1161;51.922;8.896;2023-02-10T06:05:14;133.47;;;52.63;;
2305;SDS011;1161;51.922;8.896;2023-02-10T06:07:42;128.30;;;52.85;;
2305;SDS011;1161;51.922;8.896;2023-02-10T06:10:11;160.87;;;51.37;;
2305;SDS011;1161;51.922;8.896;2023-02-10T06:12:40;145.50;;;54.00;;
2305;SDS011;1161;51.922;8.896;2023-02-10T06:15:09;164.87;;;61.50;;
2305;SDS011;1161;51.922;8.896;2023-02-10T06:17:36;157.93;;;61.43;;
2305;SDS011;1161;51.922;8.896;2023-02-10T06:20:05;160.73;;;56.43;;
2305;SDS011;1161;51.922;8.896;2023-02-10T06:22:37;182.20;;;56.17;;
2305;SDS011;1161;51.922;8.896;2023-02-10T06:25:04;152.30;;;58.63;;
2305;SDS011;1161;51.922;8.896;2023-02-10T06:27:38;147.43;;;56.03;;
2305;SDS011;1161;51.922;8.896;2023-02-10T06:30:05;151.20;;;56.67;;
2305;SDS011;1161;51.922;8.896;2023-02-10T06:32:33;155.87;;;56.03;;
2305;SDS011;1161;51.922;8.896;2023-02-10T06:35:01;153.03;;;59.90;;
2305;SDS011;1161;51.922;8.896;2023-02-10T06:37:30;166.57;;;59.20;;
2305;SDS011;1161;51.922;8.896;2023-02-10T06:39:56;158.27;;;53.70;;
2305;SDS011;1161;51.922;8.896;2023-02-10T06:42:24;143.97;;;50.67;;
2305;SDS011;1161;51.922;8.896;2023-02-10T06:44:53;170.70;;;58.77;;
2305;SDS011;1161;51.922;8.896;2023-02-10T06:47:19;140.70;;;53.40;;
2305;SDS011;1161;51.922;8.896;2023-02-10T06:49:47;149.27;;;53.97;;
2305;SDS011;1161;51.922;8.896;2023-02-10T06:52:14;122.38;;;47.88;;
2305;SDS011;1161;51.922;8.896;2023-02-10T06:54:41;165.80;;;54.92;;
2305;SDS011;1161;51.922;8.896;2023-02-10T06:57:11;157.17;;;59.40;;
2305;SDS011;1161;51.922;8.896;2023-02-10T06:59:40;171.40;;;49.13;;
2305;SDS011;1161;51.922;8.896;2023-02-10T07:02:10;167.73;;;58.53;;
2305;SDS011;1161;51.922;8.896;2023-02-10T07:04:39;135.17;;;51.10;;
2305;SDS011;1161;51.922;8.896;2023-02-10T07:07:06;155.43;;;54.07;;
2305;SDS011;1161;51.922;8.896;2023-02-10T07:09:34;134.47;;;47.40;;
2305;SDS011;1161;51.922;8.896;2023-02-10T07:12:03;165.67;;;58.00;;
2305;SDS011;1161;51.922;8.896;2023-02-10T07:14:31;142.47;;;53.80;;
2305;SDS011;1161;51.922;8.896;2023-02-10T07:16:59;158.30;;;56.70;;
2305;SDS011;1161;51.922;8.896;2023-02-10T07:19:27;149.23;;;52.50;;
2305;SDS011;1161;51.922;8.896;2023-02-10T07:21:56;110.50;;;50.10;;
2305;SDS011;1161;51.922;8.896;2023-02-10T07:24:22;138.98;;;58.95;;
2305;SDS011;1161;51.922;8.896;2023-02-10T07:26:50;139.55;;;53.35;;
2305;SDS011;1161;51.922;8.896;2023-02-10T07:29:17;138.83;;;51.30;;
2305;SDS011;1161;51.922;8.896;2023-02-10T07:31:45;150.07;;;57.97;;
2305;SDS011;1161;51.922;8.896;2023-02-10T07:34:12;186.40;;;59.37;;
2305;SDS011;1161;51.922;8.896;2023-02-10T07:36:41;155.93;;;55.63;;
2305;SDS011;1161;51.922;8.896;2023-02-10T07:39:08;148.93;;;54.72;;
2305;SDS011;1161;51.922;8.896;2023-02-10T07:41:36;154.07;;;58.33;;
2305;SDS011;1161;51.922;8.896;2023-02-10T07:44:05;171.03;;;55.90;;
2305;SDS011;1161;51.922;8.896;2023-02-10T07:46:34;180.27;;;56.33;;
2305;SDS011;1161;51.922;8.896;2023-02-10T07:49:01;167.70;;;59.73;;
2305;SDS011;1161;51.922;8.896;2023-02-10T07:51:28;153.18;;;57.22;;
2305;SDS011;1161;51.922;8.896;2023-02-10T07:53:58;177.93;;;55.50;;
2305;SDS011;1161;51.922;8.896;2023-02-10T07:56:25;142.90;;;53.90;;
2305;SDS011;1161;51.922;8.896;2023-02-10T07:58:52;180.43;;;59.77;;
2305;SDS011;1161;51.922;8.896;2023-02-10T08:01:19;195.20;;;62.10;;
2305;SDS011;1161;51.922;8.896;2023-02-10T08:03:48;178.87;;;61.23;;
2305;SDS011;1161;51.922;8.896;2023-02-10T08:06:18;157.97;;;58.97;;
2305;SDS011;1161;51.922;8.896;2023-02-10T08:08:45;184.87;;;60.70;;
2305;SDS011;1161;51.922;8.896;2023-02-10T08:11:14;178.80;;;59.50;;
2305;SDS011;1161;51.922;8.896;2023-02-10T08:13:40;167.20;;;58.55;;
2305;SDS011;1161;51.922;8.896;2023-02-10T08:16:07;152.80;;;53.63;;
2305;SDS011;1161;51.922;8.896;2023-02-10T08:18:36;153.57;;;54.22;;
2305;SDS011;1161;51.922;8.896;2023-02-10T08:21:03;178.93;;;57.30;;
2305;SDS011;1161;51.922;8.896;2023-02-10T08:23:30;154.37;;;52.67;;
2305;SDS011;1161;51.922;8.896;2023-02-10T08:25:56;178.13;;;61.40;;
2305;SDS011;1161;51.922;8.896;2023-02-10T08:28:24;162.67;;;54.73;;
2305;SDS011;1161;51.922;8.896;2023-02-10T08:30:51;137.30;;;51.00;;
2305;SDS011;1161;51.922;8.896;2023-02-10T08:33:17;145.47;;;49.90;;
2305;SDS011;1161;51.922;8.896;2023-02-10T08:35:44;135.23;;;54.37;;
2305;SDS011;1161;51.922;8.896;2023-02-10T08:38:10;168.77;;;53.47;;
2305;SDS011;1161;51.922;8.896;2023-02-10T08:40:37;138.47;;;50.87;;
2305;SDS011;1161;51.922;8.896;2023-02-10T08:43:04;151.57;;;49.83;;
2305;SDS011;1161;51.922;8.896;2023-02-10T08:45:33;183.43;;;54.07;;
2305;SDS011;1161;51.922;8.896;2023-02-10T08:48:00;163.07;;;48.00;;
2305;SDS011;1161;51.922;8.896;2023-02-10T08:50:27;144.40;;;50.10;;
2305;SDS011;1161;51.922;8.896;2023-02-10T08:52:54;136.30;;;50.80;;
2305;SDS011;1161;51.922;8.896;2023-02-10T08:55:20;128.40;;;48.00;;
2305;SDS011;1161;51.922;8.896;2023-02-10T08:57:47;136.37;;;47.83;;
2305;SDS011;1161;51.922;8.896;2023-02-10T09:00:14;135.40;;;47.17;;
2305;SDS011;1161;51.922;8.896;2023-02-10T09:02:42;163.07;;;52.57;;
2305;SDS011;1161;51.922;8.896;2023-02-10T09:05:09;141.77;;;53.20;;
2305;SDS011;1161;51.922;8.896;2023-02-10T09:07:35;200.87;;;54.00;;
2305;SDS011;1161;51.922;8.896;2023-02-10T09:10:02;138.67;;;46.47;;
2305;SDS011;1161;51.922;8.896;2023-02-10T09:12:29;140.37;;;47.47;;
2305;SDS011;1161;51.922;8.896;2023-02-10T09:14:55;144.77;;;47.60;;
2305;SDS011;1161;51.922;8.896;2023-02-10T09:17:22;132.43;;;47.97;;
2305;SDS011;1161;51.922;8.896;2023-02-10T09:19:50;132.40;;;45.47;;
2305;SDS011;1161;51.922;8.896;2023-02-10T09:22:16;151.33;;;47.63;;
2305;SDS011;1161;51.922;8.896;2023-02-10T09:24:43;124.80;;;47.40;;
2305;SDS011;1161;51.922;8.896;2023-02-10T09:27:12;133.90;;;47.90;;
2305;SDS011;1161;51.922;8.896;2023-02-10T09:29:39;134.27;;;50.43;;
2305;SDS011;1161;51.922;8.896;2023-02-10T09:32:06;127.23;;;45.53;;
2305;SDS011;1161;51.922;8.896;2023-02-10T09:34:32;140.77;;;49.27;;
2305;SDS011;1161;51.922;8.896;2023-02-10T09:37:00;151.37;;;49.83;;
2305;SDS011;1161;51.922;8.896;2023-02-10T09:39:27;149.37;;;47.00;;
2305;SDS011;1161;51.922;8.896;2023-02-10T09:41:55;162.80;;;53.47;;
2305;SDS011;1161;51.922;8.896;2023-02-10T09:44:26;159.03;;;48.93;;
2305;SDS011;1161;51.922;8.896;2023-02-10T09:46:59;145.40;;;50.97;;
2305;SDS011;1161;51.922;8.896;2023-02-10T09:49:41;130.40;;;49.93;;
2305;SDS011;1161;51.922;8.896;2023-02-10T09:52:15;128.77;;;47.17;;
2305;SDS011;1161;51.922;8.896;2023-02-10T09:54:47;125.60;;;46.00;;
2305;SDS011;1161;51.922;8.896;2023-02-10T09:57:14;124.43;;;48.23;;
2305;SDS011;1161;51.922;8.896;2023-02-10T09:59:42;126.70;;;45.67;;
2305;SDS011;1161;51.922;8.896;2023-02-10T10:02:12;121.80;;;47.37;;
2305;SDS011;1161;51.922;8.896;2023-02-10T10:04:40;125.50;;;49.63;;
2305;SDS011;1161;51.922;8.896;2023-02-10T10:07:11;117.77;;;43.37;;
2305;SDS011;1161;51.922;8.896;2023-02-10T10:09:43;118.30;;;45.27;;
2305;SDS011;1161;51.922;8.896;2023-02-10T10:12:13;137.60;;;44.10;;
2305;SDS011;1161;51.922;8.896;2023-02-10T10:14:42;135.63;;;45.17;;
2305;SDS011;1161;51.922;8.896;2023-02-10T10:17:13;108.23;;;38.90;;
2305;SDS011;1161;51.922;8.896;2023-02-10T10:20:03;116.30;;;41.30;;
2305;SDS011;1161;51.922;8.896;2023-02-10T10:22:44;112.03;;;41.60;;
2305;SDS011;1161;51.922;8.896;2023-02-10T10:25:21;124.23;;;47.57;;
2305;SDS011;1161;51.922;8.896;2023-02-10T10:27:59;115.33;;;43.90;;
2305;SDS011;1161;51.922;8.896;2023-02-10T10:30:33;106.43;;;39.47;;
2305;SDS011;1161;51.922;8.896;2023-02-10T10:33:07;116.07;;;41.37;;
2305;SDS011;1161;51.922;8.896;2023-02-10T10:35:45;112.00;;;40.60;;
2305;SDS011;1161;51.922;8.896;2023-02-10T10:38:14;104.63;;;41.63;;
2305;SDS011;1161;51.922;8.896;2023-02-10T10:40:43;87.53;;;39.07;;
2305;SDS011;1161;51.922;8.896;2023-02-10T10:43:12;89.30;;;38.17;;
2305;SDS011;1161;51.922;8.896;2023-02-10T10:45:42;97.30;;;38.97;;
2305;SDS011;1161;51.922;8.896;2023-02-10T10:48:12;90.40;;;37.53;;
2305;SDS011;1161;51.922;8.896;2023-02-10T10:50:42;121.57;;;38.60;;
2305;SDS011;1161;51.922;8.896;2023-02-10T10:53:12;102.00;;;37.57;;
2305;SDS011;1161;51.922;8.896;2023-02-10T10:55:43;93.67;;;37.63;;
2305;SDS011;1161;51.922;8.896;2023-02-10T10:58:16;99.83;;;37.80;;
2305;SDS011;1161;51.922;8.896;2023-02-10T11:00:50;112.00;;;38.53;;
2305;SDS011;1161;51.922;8.896;2023-02-10T11:03:17;83.63;;;34.87;;
2305;SDS011;1161;51.922;8.896;2023-02-10T11:05:44;92.33;;;36.60;;
2305;SDS011;1161;51.922;8.896;2023-02-10T11:08:35;96.37;;;30.97;;
2305;SDS011;1161;51.922;8.896;2023-02-10T11:11:04;86.93;;;38.27;;
2305;SDS011;1161;51.922;8.896;2023-02-10T11:13:35;98.63;;;33.37;;
2305;SDS011;1161;51.922;8.896;2023-02-10T11:16:06;104.23;;;34.40;;
2305;SDS011;1161;51.922;8.896;2023-02-10T11:18:37;83.10;;;35.53;;
2305;SDS011;1161;51.922;8.896;2023-02-10T11:21:04;84.33;;;32.93;;
2305;SDS011;1161;51.922;8.896;2023-02-10T11:23:36;86.17;;;33.03;;
2305;SDS011;1161;51.922;8.896;2023-02-10T11:26:17;76.60;;;32.83;;
2305;SDS011;1161;51.922;8.896;2023-02-10T11:28:44;116.23;;;32.97;;
2305;SDS011;1161;51.922;8.896;2023-02-10T11:31:16;88.63;;;30.27;;
2305;SDS011;1161;51.922;8.896;2023-02-10T11:33:54;71.57;;;32.63;;
2305;SDS011;1161;51.922;8.896;2023-02-10T11:36:27;72.73;;;33.23;;
2305;SDS011;1161;51.922;8.896;2023-02-10T11:38:59;75.67;;;33.03;;
2305;SDS011;1161;51.922;8.896;2023-02-10T11:41:28;83.57;;;30.90;;
2305;SDS011;1161;51.922;8.896;2023-02-10T11:43:56;77.13;;;29.50;;
2305;SDS011;1161;51.922;8.896;2023-02-10T11:46:23;66.30;;;28.47;;
2305;SDS011;1161;51.922;8.896;2023-02-10T11:48:51;78.40;;;32.63;;
2305;SDS011;1161;51.922;8.896;2023-02-10T11:51:18;63.83;;;25.80;;
2305;SDS011;1161;51.922;8.896;2023-02-10T11:53:45;82.53;;;29.67;;
2305;SDS011;1161;51.922;8.896;2023-02-10T11:56:16;61.30;;;23.87;;
2305;SDS011;1161;51.922;8.896;2023-02-10T12:01:32;67.60;;;26.00;;
2305;SDS011;1161;51.922;8.896;2023-02-10T12:04:09;63.43;;;22.90;;
2305;SDS011;1161;51.922;8.896;2023-02-10T12:06:41;55.20;;;26.37;;
2305;SDS011;1161;51.922;8.896;2023-02-10T12:09:15;45.57;;;23.50;;
2305;SDS011;1161;51.922;8.896;2023-02-10T12:11:52;54.13;;;21.90;;
2305;SDS011;1161;51.922;8.896;2023-02-10T12:14:30;58.77;;;24.63;;
2305;SDS011;1161;51.922;8.896;2023-02-10T12:17:04;64.43;;;27.47;;
2305;SDS011;1161;51.922;8.896;2023-02-10T12:19:44;64.47;;;23.93;;
2305;SDS011;1161;51.922;8.896;2023-02-10T12:22:18;69.90;;;26.73;;
2305;SDS011;1161;51.922;8.896;2023-02-10T12:24:54;58.67;;;24.03;;
2305;SDS011;1161;51.922;8.896;2023-02-10T12:27:30;72.87;;;25.10;;
2305;SDS011;1161;51.922;8.896;2023-02-10T12:30:04;74.63;;;25.70;;
2305;SDS011;1161;51.922;8.896;2023-02-10T12:32:37;54.13;;;22.13;;
2305;SDS011;1161;51.922;8.896;2023-02-10T12:35:13;56.87;;;24.00;;
2305;SDS011;1161;51.922;8.896;2023-02-10T12:37:50;62.03;;;22.93;;
2305;SDS011;1161;51.922;8.896;2023-02-10T12:40:28;50.30;;;22.43;;
2305;SDS011;1161;51.922;8.896;2023-02-10T12:43:05;52.70;;;24.47;;
2305;SDS011;1161;51.922;8.896;2023-02-10T12:45:40;48.43;;;20.83;;
2305;SDS011;1161;51.922;8.896;2023-02-10T12:48:16;39.67;;;18.90;;
2305;SDS011;1161;51.922;8.896;2023-02-10T12:50:53;49.97;;;21.30;;
2305;SDS011;1161;51.922;8.896;2023-02-10T12:53:34;47.17;;;21.27;;
2305;SDS011;1161;51.922;8.896;2023-02-10T12:56:04;51.53;;;18.23;;
2305;SDS011;1161;51.922;8.896;2023-02-10T12:58:37;47.27;;;21.00;;
2305;SDS011;1161;51.922;8.896;2023-02-10T13:01:08;47.40;;;21.67;;
2305;SDS011;1161;51.922;8.896;2023-02-10T13:03:38;46.27;;;20.37;;
2305;SDS011;1161;51.922;8.896;2023-02-10T13:06:15;47.77;;;21.40;;
2305;SDS011;1161;51.922;8.896;2023-02-10T13:08:47;67.03;;;24.50;;
2305;SDS011;1161;51.922;8.896;2023-02-10T13:11:16;52.03;;;22.33;;
2305;SDS011;1161;51.922;8.896;2023-02-10T13:13:48;47.80;;;20.70;;
2305;SDS011;1161;51.922;8.896;2023-02-10T13:16:15;61.17;;;25.63;;
2305;SDS011;1161;51.922;8.896;2023-02-10T13:18:46;73.77;;;27.47;;
2305;SDS011;1161;51.922;8.896;2023-02-10T13:21:16;69.07;;;24.20;;
2305;SDS011;1161;51.922;8.896;2023-02-10T13:23:46;61.73;;;22.07;;
2305;SDS011;1161;51.922;8.896;2023-02-10T13:26:21;49.63;;;21.10;;
2305;SDS011;1161;51.922;8.896;2023-02-10T13:28:56;43.90;;;20.70;;
2305;SDS011;1161;51.922;8.896;2023-02-10T13:31:34;51.23;;;21.33;;
2305;SDS011;1161;51.922;8.896;2023-02-10T13:34:40;46.97;;;18.77;;
2305;SDS011;1161;51.922;8.896;2023-02-10T13:37:11;44.83;;;19.10;;
2305;SDS011;1161;51.922;8.896;2023-02-10T13:39:46;36.67;;;17.20;;
2305;SDS011;1161;51.922;8.896;2023-02-10T13:42:17;53.80;;;17.20;;
2305;SDS011;1161;51.922;8.896;2023-02-10T13:44:57;48.57;;;20.10;;
2305;SDS011;1161;51.922;8.896;2023-02-10T13:47:27;51.13;;;17.30;;
2305;SDS011;1161;51.922;8.896;2023-02-10T13:50:03;42.33;;;19.17;;
2305;SDS011;1161;51.922;8.896;2023-02-10T13:52:32;40.87;;;18.23;;
2305;SDS011;1161;51.922;8.896;2023-02-10T13:55:01;44.80;;;17.23;;
2305;SDS011;1161;51.922;8.896;2023-02-10T13:57:31;46.70;;;17.90;;
2305;SDS011;1161;51.922;8.896;2023-02-10T14:02:59;37.10;;;16.77;;
2305;SDS011;1161;51.922;8.896;2023-02-10T14:05:29;62.23;;;19.97;;
2305;SDS011;1161;51.922;8.896;2023-02-10T14:07:56;34.33;;;19.30;;
2305;SDS011;1161;51.922;8.896;2023-02-10T14:10:31;40.50;;;17.40;;
2305;SDS011;1161;51.922;8.896;2023-02-10T14:12:59;42.27;;;16.20;;
2305;SDS011;1161;51.922;8.896;2023-02-10T14:15:30;45.77;;;18.40;;
2305;SDS011;1161;51.922;8.896;2023-02-10T14:17:59;39.40;;;17.60;;
2305;SDS011;1161;51.922;8.896;2023-02-10T14:20:29;44.07;;;15.73;;
2305;SDS011;1161;51.922;8.896;2023-02-10T14:22:58;34.27;;;16.53;;
2305;SDS011;1161;51.922;8.896;2023-02-10T14:25:29;43.17;;;17.53;;
2305;SDS011;1161;51.922;8.896;2023-02-10T14:27:58;39.27;;;17.97;;
2305;SDS011;1161;51.922;8.896;2023-02-10T14:30:26;35.20;;;17.13;;
2305;SDS011;1161;51.922;8.896;2023-02-10T14:32:56;36.93;;;14.97;;
2305;SDS011;1161;51.922;8.896;2023-02-10T14:35:23;39.97;;;15.70;;
2305;SDS011;1161;51.922;8.896;2023-02-10T14:37:51;51.73;;;19.67;;
2305;SDS011;1161;51.922;8.896;2023-02-10T14:40:21;44.30;;;18.83;;
2305;SDS011;1161;51.922;8.896;2023-02-10T14:42:49;56.23;;;17.17;;
2305;SDS011;1161;51.922;8.896;2023-02-10T14:45:17;39.73;;;15.40;;
2305;SDS011;1161;51.922;8.896;2023-02-10T14:47:45;34.30;;;16.70;;
2305;SDS011;1161;51.922;8.896;2023-02-10T14:50:22;43.83;;;16.80;;
2305;SDS011;1161;51.922;8.896;2023-02-10T14:52:50;31.90;;;15.97;;
2305;SDS011;1161;51.922;8.896;2023-02-10T14:55:27;41.10;;;15.70;;
2305;SDS011;1161;51.922;8.896;2023-02-10T14:57:56;55.27;;;18.97;;
2305;SDS011;1161;51.922;8.896;2023-02-10T15:00:24;41.43;;;17.57;;